Time;durP1;ratioP1;P1;durP2;ratioP2;P2;SDS_P1;SDS_P2;PMS_P1;PMS_P2;Temp;Humidity;BMP_temperature;BMP_pressure;BME280_temperature;BME280_humidity;BME280_pressure;Samples;Min_cycle;Max_cycle;Signal;HPM_P1;HPM_P2
2023/06/01 00:02:01;;;;;;;1.27;0.77;;;;;;;;;;12732834;23;20076;-79
2023/06/01 00:07:07;;;;;;;1.88;0.95;;;;;;;;;;12733190;23;20101;-79
2023/06/01 00:12:11;;;;;;;1.17;1.00;;;;;;;;;;12747570;23;20061;-79
2023/06/01 00:17:14;;;;;;;1.35;1.00;;;;;;;;;;12731793;23;20029;-79
2023/06/01 00:22:19;;;;;;;1.83;1.00;;;;;;;;;;12757177;23;20025;-79
2023/06/01 00:27:23;;;;;;;1.10;0.80;;;;;;;;;;12745677;23;20474;-80
2023/06/01 00:32:27;;;;;;;1.30;0.98;;;;;;;;;;12745679;23;20520;-80
2023/06/01 00:37:31;;;;;;;1.17;0.70;;;;;;;;;;12745840;23;20021;-80
2023/06/01 00:42:35;;;;;;;1.92;1.08;;;;;;;;;;12732147;23;20032;-79
2023/06/01 00:47:42;;;;;;;1.20;0.95;;;;;;;;;;12744746;23;20470;-79
2023/06/01 00:52:49;;;;;;;0.75;0.70;;;;;;;;;;12755973;23;20018;-79
2023/06/01 00:57:54;;;;;;;2.40;1.13;;;;;;;;;;12732859;23;20029;-79
2023/06/01 01:03:00;;;;;;;1.27;1.00;;;;;;;;;;12732119;23;20510;-79
2023/06/01 01:08:12;;;;;;;2.00;1.20;;;;;;;;;;12729554;23;20030;-79
2023/06/01 01:13:21;;;;;;;2.08;0.77;;;;;;;;;;12731817;23;20017;-79
2023/06/01 01:18:32;;;;;;;1.75;1.00;;;;;;;;;;12732054;23;20034;-78
2023/06/01 01:23:51;;;;;;;0.93;0.80;;;;;;;;;;12731722;23;20338;-79
2023/06/01 01:29:01;;;;;;;2.05;0.90;;;;;;;;;;12731211;23;20029;-79
2023/06/01 01:34:05;;;;;;;2.60;1.08;;;;;;;;;;12732896;23;20029;-80
2023/06/01 01:39:09;;;;;;;1.60;1.02;;;;;;;;;;12739535;23;20030;-80
2023/06/01 01:44:15;;;;;;;1.45;1.20;;;;;;;;;;12739635;23;20091;-80
2023/06/01 01:49:23;;;;;;;2.55;1.05;;;;;;;;;;12733032;23;20040;-79
2023/06/01 01:54:27;;;;;;;2.00;1.13;;;;;;;;;;12733221;23;20017;-80
2023/06/01 01:59:33;;;;;;;3.03;1.10;;;;;;;;;;12760076;23;20030;-80
2023/06/01 02:04:40;;;;;;;1.90;1.00;;;;;;;;;;12740130;23;20358;-80
2023/06/01 02:09:44;;;;;;;1.33;0.93;;;;;;;;;;12738985;23;20108;-80
2023/06/01 02:14:50;;;;;;;1.13;1.00;;;;;;;;;;12730787;23;20034;-79
2023/06/01 02:19:54;;;;;;;1.55;1.15;;;;;;;;;;12756345;23;20572;-79
2023/06/01 02:24:57;;;;;;;1.73;1.08;;;;;;;;;;12730349;23;20527;-79
2023/06/01 02:30:03;;;;;;;2.20;1.02;;;;;;;;;;12740428;23;20017;-83
2023/06/01 02:35:07;;;;;;;1.80;1.20;;;;;;;;;;12824654;23;20017;-83
2023/06/01 02:40:12;;;;;;;2.33;1.17;;;;;;;;;;12818174;23;20047;-84
2023/06/01 02:45:17;;;;;;;2.65;1.17;;;;;;;;;;12815249;23;20027;-85
2023/06/01 02:50:20;;;;;;;2.53;0.98;;;;;;;;;;12816749;23;20087;-84
2023/06/01 02:55:26;;;;;;;1.83;0.80;;;;;;;;;;12814703;23;20025;-84
2023/06/01 03:00:43;;;;;;;1.88;1.10;;;;;;;;;;12817173;23;20024;-84
2023/06/01 03:05:47;;;;;;;1.23;1.00;;;;;;;;;;12817350;23;20538;-84
2023/06/01 03:11:14;;;;;;;1.35;0.98;;;;;;;;;;12804324;23;20020;-83
2023/06/01 03:16:19;;;;;;;1.00;0.88;;;;;;;;;;12858558;23;20360;-84
2023/06/01 03:21:37;;;;;;;0.95;0.80;;;;;;;;;;12815935;23;20032;-83
2023/06/01 03:26:40;;;;;;;1.23;1.00;;;;;;;;;;12815978;23;20407;-83
2023/06/01 03:31:45;;;;;;;1.25;0.90;;;;;;;;;;12815161;23;20028;-84
2023/06/01 03:36:49;;;;;;;4.45;1.58;;;;;;;;;;12815407;23;20029;-84
2023/06/01 03:41:53;;;;;;;1.55;0.90;;;;;;;;;;12857792;23;20029;-83
2023/06/01 03:46:57;;;;;;;1.90;1.30;;;;;;;;;;12815258;23;20028;-83
2023/06/01 03:52:01;;;;;;;1.77;1.08;;;;;;;;;;12816637;23;20552;-84
2023/06/01 03:57:05;;;;;;;1.75;1.13;;;;;;;;;;12814653;23;20108;-83
2023/06/01 04:02:10;;;;;;;1.83;1.00;;;;;;;;;;12842908;23;20360;-84
2023/06/01 04:07:18;;;;;;;1.20;1.05;;;;;;;;;;12815796;23;20020;-84
2023/06/01 04:12:22;;;;;;;3.25;1.00;;;;;;;;;;12817291;23;20029;-83
2023/06/01 04:17:26;;;;;;;1.30;0.95;;;;;;;;;;12841542;23;20035;-84
2023/06/01 04:22:30;;;;;;;2.50;1.10;;;;;;;;;;12815707;23;20036;-82
2023/06/01 04:27:36;;;;;;;2.67;1.30;;;;;;;;;;12816585;23;20055;-83
2023/06/01 04:32:43;;;;;;;2.37;1.20;;;;;;;;;;12842870;23;20021;-84
2023/06/01 04:37:49;;;;;;;2.50;1.05;;;;;;;;;;12814341;23;20025;-84
2023/06/01 04:42:55;;;;;;;2.92;1.00;;;;;;;;;;12815791;23;20029;-83
2023/06/01 04:48:00;;;;;;;1.75;1.13;;;;;;;;;;12817515;23;20048;-83
2023/06/01 04:53:13;;;;;;;1.83;1.20;;;;;;;;;;12816126;23;20037;-83
2023/06/01 04:58:18;;;;;;;1.40;1.10;;;;;;;;;;12818422;23;20030;-84
2023/06/01 05:03:23;;;;;;;1.27;0.93;;;;;;;;;;12815619;23;20051;-84
2023/06/01 05:08:26;;;;;;;2.03;1.27;;;;;;;;;;12815815;23;20055;-83
2023/06/01 05:13:30;;;;;;;1.90;0.77;;;;;;;;;;12813000;23;20028;-84
2023/06/01 05:18:35;;;;;;;1.30;1.10;;;;;;;;;;12814480;23;20024;-84
2023/06/01 05:23:39;;;;;;;2.65;1.02;;;;;;;;;;12814015;23;20033;-84
2023/06/01 05:28:43;;;;;;;1.42;0.85;;;;;;;;;;12812970;23;20051;-83
2023/06/01 05:33:49;;;;;;;2.78;1.17;;;;;;;;;;12812464;23;20024;-85
2023/06/01 05:38:52;;;;;;;1.50;0.93;;;;;;;;;;12815030;23;20028;-85
2023/06/01 05:43:56;;;;;;;1.50;1.02;;;;;;;;;;12814632;23;20024;-86
2023/06/01 05:49:01;;;;;;;1.65;1.10;;;;;;;;;;12814279;23;20103;-85
2023/06/01 05:54:04;;;;;;;2.08;1.05;;;;;;;;;;12815488;23;20091;-86
2023/06/01 05:59:08;;;;;;;6.35;1.20;;;;;;;;;;12842521;23;20025;-86
2023/06/01 06:04:13;;;;;;;3.20;1.20;;;;;;;;;;12814768;23;20356;-86
2023/06/01 06:09:16;;;;;;;1.50;0.93;;;;;;;;;;12841911;23;20020;-85
2023/06/01 06:14:20;;;;;;;2.47;1.27;;;;;;;;;;12815647;23;20075;-87
2023/06/01 06:19:24;;;;;;;3.90;0.77;;;;;;;;;;12815892;23;20020;-86
2023/06/01 06:24:28;;;;;;;5.68;1.60;;;;;;;;;;12814025;23;20033;-85
2023/06/01 06:29:31;;;;;;;5.13;1.77;;;;;;;;;;12814956;23;20029;-86
2023/06/01 06:34:36;;;;;;;4.50;1.40;;;;;;;;;;12840989;23;20356;-86
2023/06/01 06:39:39;;;;;;;2.95;1.33;;;;;;;;;;12815824;23;20025;-84
2023/06/01 06:44:43;;;;;;;1.23;0.90;;;;;;;;;;12839854;23;20364;-87
2023/06/01 06:49:47;;;;;;;2.88;1.13;;;;;;;;;;12846709;23;20033;-86
2023/06/01 06:54:51;;;;;;;3.08;1.17;;;;;;;;;;12840578;23;20249;-87
2023/06/01 06:59:54;;;;;;;4.55;1.73;;;;;;;;;;12815186;23;20025;-85
2023/06/01 07:04:59;;;;;;;1.30;0.85;;;;;;;;;;12815873;23;20078;-86
2023/06/01 07:10:04;;;;;;;3.08;1.10;;;;;;;;;;12817208;23;20043;-84
2023/06/01 07:15:08;;;;;;;3.28;1.55;;;;;;;;;;12817286;23;20024;-84
2023/06/01 07:20:14;;;;;;;1.70;0.88;;;;;;;;;;12816985;23;20083;-84
2023/06/01 07:25:17;;;;;;;1.00;0.77;;;;;;;;;;12844979;23;20021;-84
2023/06/01 07:30:21;;;;;;;2.17;0.95;;;;;;;;;;12820286;23;20020;-84
2023/06/01 07:35:27;;;;;;;2.60;1.30;;;;;;;;;;12847710;23;20460;-84
2023/06/01 07:40:30;;;;;;;1.77;0.87;;;;;;;;;;12822628;23;20020;-83
2023/06/01 07:45:34;;;;;;;0.80;0.70;;;;;;;;;;12846648;23;20024;-85
2023/06/01 07:50:38;;;;;;;1.10;0.73;;;;;;;;;;12822345;23;20048;-84
2023/06/01 07:55:43;;;;;;;2.42;1.33;;;;;;;;;;12821041;23;20078;-84
2023/06/01 08:00:46;;;;;;;4.90;1.33;;;;;;;;;;12819870;23;20364;-84
2023/06/01 08:05:54;;;;;;;1.33;0.80;;;;;;;;;;12815750;23;20040;-84
2023/06/01 08:10:57;;;;;;;1.27;0.60;;;;;;;;;;12846197;23;20025;-83
2023/06/01 08:16:01;;;;;;;2.15;0.93;;;;;;;;;;12844084;23;20021;-84
2023/06/01 08:21:08;;;;;;;0.82;0.60;;;;;;;;;;12815213;23;20070;-84
2023/06/01 08:26:12;;;;;;;1.83;0.60;;;;;;;;;;12817125;23;20019;-85
2023/06/01 08:36:48;;;;;;;1.73;0.73;;;;;;;;;;12817439;22;20342;-89
2023/06/01 08:42:05;;;;;;;1.08;0.60;;;;;;;;;;12759544;23;20036;-92
2023/06/01 08:47:09;;;;;;;2.38;1.00;;;;;;;;;;12759553;23;20049;-89
2023/06/01 08:52:20;;;;;;;4.28;0.95;;;;;;;;;;12759621;23;20024;-89
2023/06/01 08:57:24;;;;;;;2.97;0.88;;;;;;;;;;12758880;23;20017;-90
2023/06/01 09:02:28;;;;;;;1.27;0.52;;;;;;;;;;12786271;23;20108;-90
2023/06/01 09:07:34;;;;;;;1.23;0.68;;;;;;;;;;12786002;23;20238;-91
2023/06/01 09:12:40;;;;;;;;;;;;;;;;;;12759571;23;20105;-94
2023/06/01 09:17:46;;;;;;;1.15;0.85;;;;;;;;;;12758990;23;19917;-91
2023/06/01 09:22:51;;;;;;;1.48;0.80;;;;;;;;;;12756367;23;20107;-93
2023/06/01 09:27:57;;;;;;;1.30;0.60;;;;;;;;;;12754890;23;20040;-91
2023/06/01 09:33:13;;;;;;;3.05;0.95;;;;;;;;;;12755011;23;20350;-89
2023/06/01 09:38:24;;;;;;;1.58;1.00;;;;;;;;;;12755313;23;20025;-92
2023/06/01 09:43:28;;;;;;;1.20;0.70;;;;;;;;;;12781545;23;20029;-90
2023/06/01 09:48:31;;;;;;;2.20;1.20;;;;;;;;;;12782305;23;20059;-90
2023/06/01 09:53:43;;;;;;;1.65;0.90;;;;;;;;;;12781797;23;20025;-90
2023/06/01 09:58:49;;;;;;;2.63;1.20;;;;;;;;;;12793488;23;20013;-89
2023/06/01 10:03:53;;;;;;;;;;;;;;;;;;12817571;23;20032;-92
2023/06/01 10:08:59;;;;;;;0.95;0.80;;;;;;;;;;12843399;23;19962;-90
2023/06/01 10:14:03;;;;;;;2.05;0.80;;;;;;;;;;12798872;23;20024;-89
2023/06/01 10:19:07;;;;;;;0.90;0.60;;;;;;;;;;12795994;23;20348;-90
2023/06/01 10:24:13;;;;;;;2.00;0.98;;;;;;;;;;12848882;23;20032;-89
2023/06/01 10:29:19;;;;;;;3.05;1.20;;;;;;;;;;12847965;23;20407;-92
2023/06/01 10:34:38;;;;;;;1.60;0.93;;;;;;;;;;12847293;23;20044;-91
2023/06/01 10:39:44;;;;;;;3.47;0.95;;;;;;;;;;12847014;23;20020;-89
2023/06/01 10:44:48;;;;;;;1.98;1.15;;;;;;;;;;12849011;23;20025;-89
2023/06/01 10:50:10;;;;;;;2.75;1.77;;;;;;;;;;12847362;23;20511;-93
2023/06/01 10:55:24;;;;;;;5.38;1.65;;;;;;;;;;12840912;23;20025;-92
2023/06/01 11:00:29;;;;;;;1.58;0.95;;;;;;;;;;12866431;23;20028;-91
2023/06/01 11:05:46;;;;;;;2.30;0.85;;;;;;;;;;12842476;23;20031;-90
2023/06/01 11:10:59;;;;;;;2.53;1.10;;;;;;;;;;12845117;23;20096;-90
2023/06/01 11:16:30;;;;;;;2.53;1.30;;;;;;;;;;12844250;23;20099;-90
2023/06/01 11:21:36;;;;;;;2.00;1.15;;;;;;;;;;12835292;23;20103;-91
2023/06/01 11:26:42;;;;;;;1.70;0.95;;;;;;;;;;12843034;23;20028;-90
2023/06/01 11:31:47;;;;;;;1.92;0.98;;;;;;;;;;12843711;23;20043;-89
2023/06/01 11:36:51;;;;;;;;;;;;;;;;;;12842691;23;20115;-89
2023/06/01 11:42:06;;;;;;;1.73;1.08;;;;;;;;;;12842115;23;20354;-89
2023/06/01 11:47:11;;;;;;;1.80;0.80;;;;;;;;;;12843576;23;20055;-91
2023/06/01 11:52:14;;;;;;;2.85;0.90;;;;;;;;;;12843396;23;20021;-89
2023/06/01 11:57:19;;;;;;;1.27;0.75;;;;;;;;;;12844925;23;20029;-93
2023/06/01 12:02:25;;;;;;;1.20;0.85;;;;;;;;;;12843094;23;20052;-91
2023/06/01 12:07:29;;;;;;;1.67;0.77;;;;;;;;;;12845277;23;20032;-90
2023/06/01 12:12:36;;;;;;;0.50;0.50;;;;;;;;;;12842353;23;20031;-89
2023/06/01 12:17:49;;;;;;;2.25;0.77;;;;;;;;;;12842572;23;20024;-92
2023/06/01 12:22:56;;;;;;;1.65;1.13;;;;;;;;;;12841841;23;20100;-89
2023/06/01 12:28:05;;;;;;;2.37;1.13;;;;;;;;;;12867498;23;20021;-90
2023/06/01 12:33:09;;;;;;;3.38;1.33;;;;;;;;;;12841076;23;20031;-89
2023/06/01 12:38:13;;;;;;;1.50;1.10;;;;;;;;;;12841784;23;20028;-88
2023/06/01 12:43:21;;;;;;;1.20;1.00;;;;;;;;;;12868988;23;20029;-89
2023/06/01 12:48:31;;;;;;;1.58;0.90;;;;;;;;;;12842345;23;20020;-90
2023/06/01 12:53:35;;;;;;;1.65;1.00;;;;;;;;;;12841376;23;20100;-89
2023/06/01 12:58:40;;;;;;;2.13;0.82;;;;;;;;;;12843439;23;20035;-86
2023/06/01 13:03:43;;;;;;;1.67;1.40;;;;;;;;;;12838928;23;20044;-87
2023/06/01 13:08:47;;;;;;;2.53;1.80;;;;;;;;;;12838392;23;20028;-87
2023/06/01 13:13:52;;;;;;;4.20;1.80;;;;;;;;;;12840807;23;20047;-87
2023/06/01 13:18:55;;;;;;;3.45;1.70;;;;;;;;;;12839705;23;20067;-87
2023/06/01 13:23:58;;;;;;;2.80;1.67;;;;;;;;;;12839912;23;20325;-87
2023/06/01 13:29:06;;;;;;;3.50;2.40;;;;;;;;;;12840641;23;20044;-87
2023/06/01 13:34:09;;;;;;;3.72;2.47;;;;;;;;;;12839328;23;20032;-87
2023/06/01 13:39:13;;;;;;;4.50;2.35;;;;;;;;;;12845309;23;20059;-87
2023/06/01 13:44:18;;;;;;;5.07;2.37;;;;;;;;;;12839586;23;20055;-87
2023/06/01 13:49:22;;;;;;;6.50;2.92;;;;;;;;;;12838634;23;20499;-86
2023/06/01 13:54:25;;;;;;;1.83;1.67;;;;;;;;;;12836888;23;20116;-86
2023/06/01 13:59:30;;;;;;;2.03;1.63;;;;;;;;;;12863019;23;20017;-86
2023/06/01 14:04:34;;;;;;;4.53;2.83;;;;;;;;;;12837383;23;20036;-87
2023/06/01 14:09:38;;;;;;;4.43;3.40;;;;;;;;;;12839648;23;20103;-88
2023/06/01 14:14:42;;;;;;;5.28;3.70;;;;;;;;;;12840725;23;20028;-88
2023/06/01 14:19:46;;;;;;;;;;;;;;;;;;12837165;23;20071;-88
2023/06/01 14:24:49;;;;;;;3.33;2.80;;;;;;;;;;12837333;23;19915;-87
2023/06/01 14:29:54;;;;;;;3.80;2.50;;;;;;;;;;12838964;22;20380;-86
2023/06/01 14:34:57;;;;;;;;;;;;;;;;;;12841588;23;20024;-87
2023/06/01 14:40:00;;;;;;;5.03;3.88;;;;;;;;;;12906627;23;19953;-87
2023/06/01 14:45:11;;;;;;;3.72;3.28;;;;;;;;;;12878136;22;20024;-85
2023/06/01 14:50:14;;;;;;;3.42;2.85;;;;;;;;;;12878516;23;20042;-85
2023/06/01 14:55:18;;;;;;;5.65;4.45;;;;;;;;;;12908361;22;20031;-84
2023/06/01 15:00:23;;;;;;;9.43;4.33;;;;;;;;;;12882583;23;20051;-84
2023/06/01 15:05:26;;;;;;;5.05;3.80;;;;;;;;;;12879516;22;20032;-84
2023/06/01 15:10:29;;;;;;;6.13;4.50;;;;;;;;;;12880248;23;20035;-84
2023/06/01 15:15:34;;;;;;;6.43;4.95;;;;;;;;;;12908222;22;20024;-85
2023/06/01 15:20:38;;;;;;;6.45;4.97;;;;;;;;;;12908669;23;20023;-84
2023/06/01 15:25:41;;;;;;;6.10;4.32;;;;;;;;;;12881952;22;20124;-85
2023/06/01 15:30:46;;;;;;;5.75;4.40;;;;;;;;;;12930715;23;20031;-85
2023/06/01 15:35:49;;;;;;;6.70;3.85;;;;;;;;;;12926951;22;20016;-84
2023/06/01 15:40:52;;;;;;;5.15;4.18;;;;;;;;;;12881512;23;20016;-84
2023/06/01 15:45:57;;;;;;;4.78;4.10;;;;;;;;;;12925026;22;20020;-85
2023/06/01 15:51:00;;;;;;;6.53;5.05;;;;;;;;;;12879771;23;20250;-85
2023/06/01 15:56:04;;;;;;;5.95;4.30;;;;;;;;;;12878027;23;20613;-85
2023/06/01 16:01:09;;;;;;;4.85;3.83;;;;;;;;;;12905730;23;20070;-86
2023/06/01 16:06:14;;;;;;;5.53;4.40;;;;;;;;;;12878791;23;20110;-86
2023/06/01 16:11:18;;;;;;;5.25;3.90;;;;;;;;;;12922853;23;20094;-85
2023/06/01 16:16:24;;;;;;;5.70;4.32;;;;;;;;;;12905776;22;20026;-85
2023/06/01 16:21:27;;;;;;;6.55;4.75;;;;;;;;;;12879963;23;20070;-86
2023/06/01 16:26:32;;;;;;;8.52;6.00;;;;;;;;;;12877856;23;20020;-85
2023/06/01 16:31:37;;;;;;;5.45;4.72;;;;;;;;;;12904502;23;20264;-86
2023/06/01 16:36:40;;;;;;;8.80;6.20;;;;;;;;;;12879356;23;20650;-85
2023/06/01 16:41:43;;;;;;;11.73;8.13;;;;;;;;;;12905395;23;20279;-86
2023/06/01 16:46:48;;;;;;;8.98;7.05;;;;;;;;;;12876394;23;20024;-85
2023/06/01 16:51:51;;;;;;;7.87;6.60;;;;;;;;;;12878823;23;20028;-85
2023/06/01 16:56:55;;;;;;;9.18;5.88;;;;;;;;;;12919119;22;20460;-85
2023/06/01 17:01:59;;;;;;;7.72;5.57;;;;;;;;;;12876140;23;20040;-85
2023/06/01 17:07:03;;;;;;;5.25;4.00;;;;;;;;;;12876047;23;20359;-85
2023/06/01 17:12:13;;;;;;;4.90;3.30;;;;;;;;;;12877340;23;20043;-86
2023/06/01 17:17:19;;;;;;;4.22;3.17;;;;;;;;;;12875349;23;20055;-85
2023/06/01 17:22:22;;;;;;;;;;;;;;;;;;12905102;23;20027;-85
2023/06/01 17:27:25;;;;;;;2.33;2.08;;;;;;;;;;12902799;22;20363;-85
2023/06/01 17:32:30;;;;;;;3.15;2.38;;;;;;;;;;12871495;23;20044;-85
2023/06/01 17:37:33;;;;;;;5.67;3.47;;;;;;;;;;12874288;23;20024;-85
2023/06/01 17:42:38;;;;;;;3.85;2.72;;;;;;;;;;12876011;23;20028;-87
2023/06/01 17:47:42;;;;;;;4.25;2.88;;;;;;;;;;12903764;22;20051;-86
2023/06/01 17:52:46;;;;;;;2.85;2.50;;;;;;;;;;12903706;23;20419;-86
2023/06/01 17:57:49;;;;;;;2.97;2.30;;;;;;;;;;12902914;22;20408;-86
2023/06/01 18:02:54;;;;;;;2.50;1.83;;;;;;;;;;12879264;22;20046;-85
2023/06/01 18:07:58;;;;;;;4.35;2.10;;;;;;;;;;12874812;23;20663;-85
2023/06/01 18:13:01;;;;;;;3.38;1.95;;;;;;;;;;12875660;22;20331;-84
2023/06/01 18:18:06;;;;;;;2.38;1.67;;;;;;;;;;12912207;23;20489;-85
2023/06/01 18:23:10;;;;;;;3.00;1.77;;;;;;;;;;12875941;22;20020;-85
2023/06/01 18:28:13;;;;;;;3.38;1.80;;;;;;;;;;12877959;23;20028;-85
2023/06/01 18:33:18;;;;;;;3.03;1.67;;;;;;;;;;12879332;22;20074;-85
2023/06/01 18:38:22;;;;;;;3.25;2.10;;;;;;;;;;12914650;23;20656;-85
2023/06/01 18:43:25;;;;;;;2.92;2.20;;;;;;;;;;12877575;22;20056;-86
2023/06/01 18:48:30;;;;;;;3.85;1.75;;;;;;;;;;12878582;23;20036;-86
2023/06/01 18:53:33;;;;;;;3.92;2.03;;;;;;;;;;12875411;22;20571;-86
2023/06/01 18:58:37;;;;;;;2.95;1.80;;;;;;;;;;12878205;23;20024;-86
2023/06/01 19:03:42;;;;;;;3.08;2.33;;;;;;;;;;12904681;22;20066;-86
2023/06/01 19:08:45;;;;;;;6.72;2.40;;;;;;;;;;12878658;23;20028;-85
2023/06/01 19:13:49;;;;;;;4.22;2.38;;;;;;;;;;12905880;22;20024;-90
2023/06/01 19:18:55;;;;;;;3.33;2.78;;;;;;;;;;12878869;23;20442;-85
2023/06/01 19:23:59;;;;;;;5.80;2.40;;;;;;;;;;12913927;22;20411;-84
2023/06/01 19:29:05;;;;;;;6.90;2.90;;;;;;;;;;12912395;23;20020;-84
2023/06/01 19:34:11;;;;;;;4.90;2.67;;;;;;;;;;12916455;22;20020;-84
2023/06/01 19:39:19;;;;;;;3.95;2.72;;;;;;;;;;12889695;23;20043;-83
2023/06/01 19:44:27;;;;;;;2.60;2.28;;;;;;;;;;12889153;22;20075;-85
2023/06/01 19:49:40;;;;;;;3.22;2.33;;;;;;;;;;12891789;23;20020;-84
2023/06/01 19:54:43;;;;;;;4.53;3.13;;;;;;;;;;12922374;22;20385;-84
2023/06/01 19:59:47;;;;;;;4.13;3.05;;;;;;;;;;12886747;23;20538;-84
2023/06/01 20:04:51;;;;;;;3.70;2.58;;;;;;;;;;12922772;22;20431;-84
2023/06/01 20:09:55;;;;;;;4.47;2.70;;;;;;;;;;12895705;23;20051;-84
2023/06/01 20:14:59;;;;;;;3.78;3.00;;;;;;;;;;12884274;22;20058;-83
2023/06/01 20:20:06;;;;;;;4.22;3.15;;;;;;;;;;12882622;23;20024;-87
2023/06/01 20:25:09;;;;;;;4.50;3.35;;;;;;;;;;12885409;22;20028;-85
2023/06/01 20:30:41;;;;;;;5.35;3.03;;;;;;;;;;12869131;22;20029;-87
2023/06/01 20:35:46;;;;;;;4.38;3.03;;;;;;;;;;12876352;23;20027;-90
2023/06/01 20:41:16;;;;;;;4.25;2.90;;;;;;;;;;12877629;23;20020;-89
2023/06/01 20:46:23;;;;;;;3.78;2.95;;;;;;;;;;12879460;23;20020;-91
2023/06/01 20:51:31;;;;;;;4.38;2.80;;;;;;;;;;12877928;23;20016;-91
2023/06/01 20:56:37;;;;;;;4.68;2.85;;;;;;;;;;12877887;23;20119;-89
2023/06/01 21:01:41;;;;;;;4.68;3.58;;;;;;;;;;12905149;23;20016;-88
2023/06/01 21:06:46;;;;;;;4.13;2.90;;;;;;;;;;12902619;22;20463;-89
2023/06/01 21:11:51;;;;;;;4.53;3.00;;;;;;;;;;12903513;23;20028;-90
2023/06/01 21:16:55;;;;;;;4.17;3.30;;;;;;;;;;12877421;23;20084;-88
2023/06/01 21:22:00;;;;;;;4.55;3.38;;;;;;;;;;12875934;23;20074;-91
2023/06/01 21:27:04;;;;;;;5.28;3.80;;;;;;;;;;12901951;22;20475;-91
2023/06/01 21:32:08;;;;;;;4.57;3.25;;;;;;;;;;12876440;23;20026;-89
2023/06/01 21:37:13;;;;;;;6.10;4.10;;;;;;;;;;12881806;23;20024;-90
2023/06/01 21:42:17;;;;;;;5.38;3.33;;;;;;;;;;12877138;23;20024;-88
2023/06/01 21:47:20;;;;;;;5.93;4.20;;;;;;;;;;12877232;23;20024;-88
2023/06/01 21:52:25;;;;;;;4.88;3.97;;;;;;;;;;12879197;23;20111;-88
2023/06/01 21:57:31;;;;;;;5.65;4.10;;;;;;;;;;12879370;23;20393;-89
2023/06/01 22:02:35;;;;;;;5.75;4.28;;;;;;;;;;12903412;23;20351;-91
2023/06/01 22:07:40;;;;;;;5.65;4.05;;;;;;;;;;12877391;23;20576;-89
2023/06/01 22:12:44;;;;;;;5.63;3.92;;;;;;;;;;12902956;23;20059;-87
2023/06/01 22:17:48;;;;;;;4.93;3.40;;;;;;;;;;12875417;23;20024;-86
2023/06/01 22:22:53;;;;;;;3.55;3.05;;;;;;;;;;12873891;23;20016;-87
2023/06/01 22:27:57;;;;;;;4.97;3.15;;;;;;;;;;12874671;23;20046;-85
2023/06/01 22:33:01;;;;;;;4.05;3.00;;;;;;;;;;12903688;22;20051;-86
2023/06/01 22:38:06;;;;;;;4.03;3.05;;;;;;;;;;12875262;23;20551;-87
2023/06/01 22:43:09;;;;;;;6.38;3.28;;;;;;;;;;12873064;22;20754;-87
2023/06/01 22:48:13;;;;;;;3.42;2.30;;;;;;;;;;12876609;23;20043;-86
2023/06/01 22:53:18;;;;;;;3.45;2.35;;;;;;;;;;12874336;22;20020;-86
2023/06/01 22:58:21;;;;;;;4.75;2.20;;;;;;;;;;12882409;23;20055;-88
2023/06/01 23:03:25;;;;;;;2.95;2.38;;;;;;;;;;12881668;22;20376;-91
2023/06/01 23:08:31;;;;;;;2.92;2.50;;;;;;;;;;12883591;23;20367;-89
2023/06/01 23:13:35;;;;;;;2.60;2.10;;;;;;;;;;12883121;22;20135;-89
2023/06/01 23:18:39;;;;;;;2.92;1.90;;;;;;;;;;12909037;23;20048;-90
2023/06/01 23:23:45;;;;;;;3.20;2.50;;;;;;;;;;12882046;22;20030;-89
2023/06/01 23:28:52;;;;;;;;;;;;;;;;;;12884169;23;20518;-88
2023/06/01 23:33:56;;;;;;;4.35;2.17;;;;;;;;;;12906967;22;19926;-87
2023/06/01 23:39:05;;;;;;;3.83;2.25;;;;;;;;;;12906122;23;20669;-87
2023/06/01 23:44:09;;;;;;;3.15;2.25;;;;;;;;;;12906966;22;20337;-87
2023/06/01 23:49:13;;;;;;;3.05;2.50;;;;;;;;;;12879010;23;20483;-86
2023/06/01 23:54:17;;;;;;;3.85;2.50;;;;;;;;;;12876507;22;20020;-86
2023/06/01 23:59:21;;;;;;;4.13;2.88;;;;;;;;;;12878501;23;20024;-86
